createdAt,value
2022-12-27T00:01:53.324Z,104.55
2022-12-27T00:04:21.826Z,98.35
2022-12-27T00:06:50.171Z,100.45
2022-12-27T00:09:18.478Z,95.65
2022-12-27T00:11:47.148Z,94.18
2022-12-27T00:14:15.865Z,95.50
2022-12-27T00:16:44.222Z,91.75
2022-12-27T00:19:12.492Z,86.60
2022-12-27T00:21:40.864Z,86.03
2022-12-27T00:24:10.653Z,81.47
2022-12-27T00:26:39.118Z,73.47
2022-12-27T00:29:08.415Z,77.15
2022-12-27T00:31:37.193Z,75.00
2022-12-27T00:34:09.395Z,71.28
2022-12-27T00:36:38.056Z,69.50
2022-12-27T00:39:06.653Z,69.70
2022-12-27T00:41:35.049Z,67.70
2022-12-27T00:44:05.494Z,71.95
2022-12-27T00:46:33.684Z,69.10
2022-12-27T00:49:02.597Z,67.93
2022-12-27T00:51:31.717Z,65.63
2022-12-27T00:54:00.245Z,66.63
2022-12-27T00:56:31.442Z,65.88
2022-12-27T00:59:02.354Z,66.63
2022-12-27T01:01:34.952Z,64.07
2022-12-27T01:04:03.872Z,57.88
2022-12-27T01:06:36.229Z,55.80
2022-12-27T01:09:06.466Z,54.22
2022-12-27T01:11:35.257Z,54.67
2022-12-27T01:14:05.867Z,51.28
2022-12-27T01:16:34.943Z,49.33
2022-12-27T01:19:03.363Z,49.75
2022-12-27T01:21:31.561Z,47.92
2022-12-27T01:24:00.250Z,49.13
2022-12-27T01:26:29.179Z,49.33
2022-12-27T01:28:57.263Z,51.15
2022-12-27T01:31:29.278Z,50.88
2022-12-27T01:34:01.492Z,49.97
2022-12-27T01:36:31.582Z,51.28
2022-12-27T01:39:00.430Z,51.67
2022-12-27T01:41:35.807Z,50.88
2022-12-27T01:44:38.746Z,48.67
2022-12-27T01:47:32.855Z,51.20
2022-12-27T01:50:14.950Z,50.80
2022-12-27T01:52:48.905Z,51.38
2022-12-27T01:55:32.580Z,50.65
2022-12-27T01:58:15.019Z,53.03
2022-12-27T02:00:45.794Z,54.30
2022-12-27T02:03:37.371Z,52.50
2022-12-27T02:06:08.941Z,52.58
2022-12-27T02:08:52.997Z,51.42
2022-12-27T02:11:25.379Z,50.05
2022-12-27T02:13:53.953Z,47.20
2022-12-27T02:16:22.121Z,46.67
2022-12-27T02:18:51.602Z,45.05
2022-12-27T02:21:41.749Z,42.55
2022-12-27T02:24:29.780Z,42.58
2022-12-27T02:27:28.846Z,41.70
2022-12-27T02:30:05.617Z,39.08
2022-12-27T02:32:57.871Z,43.05
2022-12-27T02:35:32.847Z,39.90
2022-12-27T02:38:12.632Z,42.28
2022-12-27T02:40:46.118Z,43.72
2022-12-27T02:43:14.924Z,46.60
2022-12-27T02:46:21.212Z,44.65
2022-12-27T02:48:57.761Z,47.53
2022-12-27T02:51:31.448Z,50.13
2022-12-27T02:54:31.885Z,48.17
2022-12-27T02:57:25.618Z,49.97
2022-12-27T03:00:12.425Z,49.40
2022-12-27T03:02:58.550Z,47.15
2022-12-27T03:06:01.292Z,48.35
2022-12-27T03:08:41.819Z,47.58
2022-12-27T03:11:10.220Z,45.33
2022-12-27T03:13:48.177Z,45.75
2022-12-27T03:16:28.746Z,44.97
2022-12-27T03:19:22.276Z,42.47
2022-12-27T03:21:50.907Z,41.13
2022-12-27T03:24:23.074Z,40.78
2022-12-27T03:26:53.133Z,39.88
2022-12-27T03:29:24.335Z,37.58
2022-12-27T03:31:57.284Z,38.65
2022-12-27T03:34:51.203Z,37.05
2022-12-27T03:37:25.147Z,38.38
2022-12-27T03:40:18.902Z,40.63
2022-12-27T03:43:01.634Z,38.78
2022-12-27T03:45:45.179Z,37.25
2022-12-27T03:48:17.138Z,36.70
2022-12-27T03:50:50.681Z,37.00
2022-12-27T03:53:54.596Z,36.53
2022-12-27T03:56:23.254Z,37.65
2022-12-27T03:58:52.579Z,35.92
2022-12-27T04:01:21.021Z,34.63
2022-12-27T04:03:49.296Z,34.28
2022-12-27T04:06:17.681Z,31.42
2022-12-27T04:08:46.467Z,34.38
2022-12-27T04:11:14.689Z,32.40
2022-12-27T04:13:42.907Z,33.20
2022-12-27T04:16:11.242Z,30.10
2022-12-27T04:18:39.700Z,30.42
2022-12-27T04:21:07.936Z,29.70
2022-12-27T04:23:37.777Z,28.58
2022-12-27T04:26:06.472Z,29.38
2022-12-27T04:28:34.650Z,27.02
2022-12-27T04:31:03.008Z,28.95
2022-12-27T04:33:31.273Z,29.27
2022-12-27T04:36:05.807Z,30.45
2022-12-27T04:38:34.822Z,30.00
2022-12-27T04:41:03.066Z,27.67
2022-12-27T04:43:31.177Z,29.67
2022-12-27T04:45:59.719Z,31.17
2022-12-27T04:48:30.169Z,27.42
2022-12-27T04:50:58.480Z,28.67
2022-12-27T04:53:26.643Z,26.75
2022-12-27T04:55:56.630Z,29.65
2022-12-27T04:58:25.391Z,27.40
2022-12-27T05:00:54.397Z,27.63
2022-12-27T05:03:24.712Z,26.63
2022-12-27T05:05:54.033Z,27.63
2022-12-27T05:08:24.045Z,28.25
2022-12-27T05:10:52.835Z,29.55
2022-12-27T05:13:22.157Z,28.75
2022-12-27T05:15:50.670Z,27.80
2022-12-27T05:18:18.880Z,26.55
2022-12-27T05:20:47.211Z,29.38
2022-12-27T05:23:15.612Z,29.42
2022-12-27T05:25:45.476Z,27.58
2022-12-27T05:28:14.460Z,27.98
2022-12-27T05:30:44.114Z,27.20
2022-12-27T05:33:12.491Z,28.92
2022-12-27T05:35:40.996Z,28.67
2022-12-27T05:38:16.840Z,27.17
2022-12-27T05:40:45.069Z,30.23
2022-12-27T05:43:13.451Z,29.70
2022-12-27T05:45:41.662Z,29.92
2022-12-27T05:48:10.024Z,30.88
2022-12-27T05:50:38.396Z,31.65
2022-12-27T05:53:13.896Z,29.65
2022-12-27T05:55:42.566Z,30.17
2022-12-27T05:58:10.937Z,29.33
2022-12-27T06:00:39.222Z,29.20
2022-12-27T06:03:07.404Z,31.08
2022-12-27T06:05:35.746Z,30.02
2022-12-27T06:08:04.307Z,29.13
2022-12-27T06:10:32.434Z,26.88
2022-12-27T06:13:01.735Z,25.52
2022-12-27T06:15:30.535Z,25.05
2022-12-27T06:17:59.809Z,26.10
2022-12-27T06:20:28.117Z,24.88
2022-12-27T06:22:58.938Z,24.95
2022-12-27T06:25:28.733Z,23.95
2022-12-27T06:27:57.050Z,23.90
2022-12-27T06:30:25.161Z,23.30
2022-12-27T06:32:53.417Z,24.02
2022-12-27T06:35:21.686Z,24.90
2022-12-27T06:37:49.750Z,26.65
2022-12-27T06:40:18.214Z,29.75
2022-12-27T06:42:46.465Z,41.13
2022-12-27T06:45:14.552Z,43.78
2022-12-27T06:47:42.913Z,41.83
2022-12-27T06:50:11.438Z,37.85
2022-12-27T06:52:39.865Z,33.03
2022-12-27T06:55:08.523Z,28.08
2022-12-27T06:57:36.772Z,28.10
2022-12-27T07:00:06.451Z,28.50
2022-12-27T07:02:35.086Z,28.23
2022-12-27T07:05:03.298Z,29.58
2022-12-27T07:07:31.716Z,31.13
2022-12-27T07:10:00.133Z,31.17
2022-12-27T07:12:33.143Z,30.38
2022-12-27T07:15:06.790Z,30.35
2022-12-27T07:17:36.328Z,30.45
2022-12-27T07:20:06.136Z,26.67
2022-12-27T07:22:34.980Z,26.20
2022-12-27T07:25:03.367Z,27.95
2022-12-27T07:27:37.128Z,29.15
2022-12-27T07:30:07.885Z,28.83
2022-12-27T07:32:36.507Z,28.88
2022-12-27T07:35:05.238Z,30.10
2022-12-27T07:37:33.450Z,29.08
2022-12-27T07:40:01.816Z,30.05
2022-12-27T07:42:30.188Z,29.42
2022-12-27T07:44:58.619Z,28.95
2022-12-27T07:47:26.851Z,32.83
2022-12-27T07:49:55.182Z,32.97
2022-12-27T07:52:23.546Z,33.95
2022-12-27T07:54:52.480Z,30.92
2022-12-27T07:57:20.903Z,30.40
2022-12-27T07:59:49.213Z,30.02
2022-12-27T08:02:17.731Z,29.65
2022-12-27T08:04:46.205Z,27.13
2022-12-27T08:07:17.823Z,28.17
2022-12-27T08:09:48.815Z,27.65
2022-12-27T08:12:17.513Z,28.42
2022-12-27T08:14:46.381Z,27.90
2022-12-27T08:17:24.673Z,28.63
2022-12-27T08:19:54.009Z,30.27
2022-12-27T08:22:23.720Z,27.60
2022-12-27T08:24:52.061Z,27.83
2022-12-27T08:27:24.880Z,27.63
2022-12-27T08:29:53.330Z,25.20
2022-12-27T08:32:21.755Z,24.88
2022-12-27T08:34:49.915Z,28.27
2022-12-27T08:37:18.354Z,25.83
2022-12-27T08:39:46.694Z,25.45
2022-12-27T08:42:15.300Z,26.98
2022-12-27T08:45:28.722Z,26.60
2022-12-27T08:48:01.984Z,23.77
2022-12-27T08:50:30.979Z,22.25
2022-12-27T08:53:01.126Z,22.75
2022-12-27T08:55:30.518Z,21.85
2022-12-27T08:58:01.106Z,22.17
2022-12-27T09:00:30.353Z,21.42
2022-12-27T09:02:59.105Z,22.73
2022-12-27T09:05:28.389Z,24.42
2022-12-27T09:07:58.411Z,23.20
2022-12-27T09:10:26.704Z,22.13
2022-12-27T09:12:56.241Z,20.33
2022-12-27T09:15:24.645Z,21.70
2022-12-27T09:17:52.971Z,21.40
2022-12-27T09:20:22.218Z,22.70
2022-12-27T09:22:51.953Z,23.42
2022-12-27T09:25:22.161Z,23.88
2022-12-27T09:27:51.634Z,23.90
2022-12-27T09:30:21.543Z,24.02
2022-12-27T09:32:51.249Z,22.10
2022-12-27T09:35:21.709Z,20.95
2022-12-27T09:37:51.999Z,20.55
2022-12-27T09:40:22.986Z,20.13
2022-12-27T09:43:22.226Z,21.87
2022-12-27T09:45:56.962Z,19.48
2022-12-27T09:48:33.502Z,20.17
2022-12-27T09:51:13.519Z,21.15
2022-12-27T09:53:50.965Z,19.98
2022-12-27T09:56:47.394Z,19.27
2022-12-27T09:59:25.437Z,21.83
2022-12-27T10:01:54.039Z,19.20
2022-12-27T10:04:22.801Z,19.35
2022-12-27T10:06:51.068Z,19.73
2022-12-27T10:09:56.301Z,18.92
2022-12-27T10:12:36.637Z,19.88
2022-12-27T10:15:36.462Z,26.08
2022-12-27T10:18:49.541Z,23.40
2022-12-27T10:21:27.204Z,18.58
2022-12-27T10:24:22.720Z,23.00
2022-12-27T10:26:55.523Z,18.90
2022-12-27T10:29:26.232Z,17.98
2022-12-27T10:31:54.969Z,16.50
2022-12-27T10:34:23.441Z,15.57
2022-12-27T10:36:53.857Z,15.10
2022-12-27T10:39:28.368Z,15.18
2022-12-27T10:42:05.941Z,15.27
2022-12-27T10:44:34.367Z,18.17
2022-12-27T10:47:03.521Z,16.98
2022-12-27T10:49:36.195Z,17.40
2022-12-27T10:52:21.757Z,18.85
2022-12-27T10:54:52.771Z,20.40
2022-12-27T10:57:30.496Z,14.95
2022-12-27T11:00:20.750Z,14.55
2022-12-27T11:03:00.188Z,16.73
2022-12-27T11:05:31.529Z,16.60
2022-12-27T11:08:00.273Z,16.20
2022-12-27T11:10:31.073Z,15.23
2022-12-27T11:13:03.148Z,15.70
2022-12-27T11:18:19.758Z,15.60
2022-12-27T11:20:55.023Z,15.85
2022-12-27T11:23:26.198Z,14.18
2022-12-27T11:25:57.551Z,14.73
2022-12-27T11:28:37.094Z,15.70
2022-12-27T11:31:13.521Z,18.30
2022-12-27T11:33:53.322Z,15.32
2022-12-27T11:36:37.795Z,15.23
2022-12-27T11:39:06.263Z,14.52
2022-12-27T11:41:54.265Z,15.02
2022-12-27T11:44:30.273Z,14.23
2022-12-27T11:47:28.201Z,17.73
2022-12-27T11:50:20.777Z,18.88
2022-12-27T11:53:36.784Z,16.10
2022-12-27T11:56:28.863Z,14.95
2022-12-27T11:59:06.483Z,16.25
2022-12-27T12:02:11.612Z,16.45
2022-12-27T12:04:45.915Z,16.75
2022-12-27T12:07:41.748Z,16.92
2022-12-27T12:10:22.030Z,18.08
2022-12-27T12:12:59.457Z,18.38
2022-12-27T12:15:38.151Z,16.48
2022-12-27T12:18:42.739Z,16.50
2022-12-27T12:21:42.213Z,15.27
2022-12-27T12:24:28.980Z,15.77
2022-12-27T12:27:18.879Z,15.10
2022-12-27T12:29:53.369Z,17.70
2022-12-27T12:32:46.516Z,18.55
2022-12-27T12:35:45.534Z,16.55
2022-12-27T12:38:28.031Z,17.58
2022-12-27T12:41:20.729Z,17.48
2022-12-27T12:44:02.574Z,18.17
2022-12-27T12:46:38.538Z,16.98
2022-12-27T12:49:44.257Z,20.95
2022-12-27T12:52:44.648Z,16.85
2022-12-27T12:55:52.873Z,17.95
2022-12-27T12:58:49.368Z,17.38
2022-12-27T13:02:01.378Z,15.13
2022-12-27T13:04:42.150Z,15.52
2022-12-27T13:07:36.219Z,15.55
2022-12-27T13:10:49.121Z,16.85
2022-12-27T13:13:30.224Z,16.13
2022-12-27T13:16:14.071Z,18.47
2022-12-27T13:18:43.087Z,16.48
2022-12-27T13:21:27.644Z,20.30
2022-12-27T13:24:08.022Z,21.63
2022-12-27T13:27:19.806Z,19.05
2022-12-27T13:30:04.549Z,18.77
2022-12-27T13:32:53.036Z,18.70
2022-12-27T13:35:29.446Z,22.25
2022-12-27T13:38:16.091Z,21.30
2022-12-27T13:41:05.984Z,18.38
2022-12-27T13:43:57.012Z,18.15
2022-12-27T13:49:29.884Z,22.13
2022-12-27T13:52:09.773Z,19.20
2022-12-27T13:55:03.093Z,21.15
2022-12-27T13:58:02.219Z,16.73
2022-12-27T14:00:53.275Z,17.48
2022-12-27T14:03:53.728Z,17.92
2022-12-27T14:06:25.137Z,18.20
2022-12-27T14:09:20.196Z,19.67
2022-12-27T14:12:18.240Z,19.30
2022-12-27T14:14:48.564Z,18.20
2022-12-27T14:17:34.950Z,15.30
2022-12-27T14:20:03.373Z,17.92
2022-12-27T14:22:49.683Z,18.25
2022-12-27T14:25:44.898Z,14.43
2022-12-27T14:28:43.233Z,14.30
2022-12-27T14:31:30.033Z,18.13
2022-12-27T14:34:32.245Z,13.80
2022-12-27T14:37:24.978Z,18.65
2022-12-27T14:39:56.455Z,15.75
2022-12-27T14:42:46.689Z,14.98
2022-12-27T14:45:42.621Z,15.50
2022-12-27T14:48:35.619Z,15.60
2022-12-27T14:51:58.714Z,15.60
2022-12-27T14:54:44.199Z,17.67
2022-12-27T14:57:15.820Z,14.48
2022-12-27T15:00:25.619Z,15.98
2022-12-27T15:02:54.147Z,16.05
2022-12-27T15:05:39.355Z,15.65
2022-12-27T15:08:38.237Z,16.13
2022-12-27T15:11:19.069Z,18.48
2022-12-27T15:14:05.850Z,16.80
2022-12-27T15:16:50.005Z,19.23
2022-12-27T15:19:46.157Z,15.85
2022-12-27T15:22:38.697Z,12.48
2022-12-27T15:25:42.383Z,15.75
2022-12-27T15:28:19.948Z,16.92
2022-12-27T15:31:06.753Z,15.60
2022-12-27T15:34:08.850Z,18.08
2022-12-27T15:36:43.451Z,23.38
2022-12-27T15:39:33.516Z,17.33
2022-12-27T15:42:12.158Z,15.68
2022-12-27T15:44:56.787Z,12.48
2022-12-27T15:47:58.847Z,19.45
2022-12-27T15:50:54.685Z,16.30
2022-12-27T15:53:38.398Z,14.85
2022-12-27T15:56:23.195Z,19.10
2022-12-27T15:59:29.894Z,15.40
2022-12-27T16:02:25.079Z,18.95
2022-12-27T16:04:57.588Z,24.80
2022-12-27T16:07:40.783Z,20.40
2022-12-27T16:10:29.474Z,21.85
2022-12-27T16:13:22.014Z,18.83
2022-12-27T16:15:55.693Z,14.73
2022-12-27T16:18:24.010Z,16.10
2022-12-27T16:21:03.300Z,20.58
2022-12-27T16:23:48.571Z,21.10
2022-12-27T16:26:16.888Z,17.48
2022-12-27T16:29:07.650Z,23.95
2022-12-27T16:31:45.359Z,16.25
2022-12-27T16:34:25.678Z,16.55
2022-12-27T16:36:55.822Z,16.17
2022-12-27T16:39:49.073Z,16.35
2022-12-27T16:42:24.258Z,20.45
2022-12-27T16:44:58.436Z,25.83
2022-12-27T16:47:29.785Z,18.65
2022-12-27T16:50:01.073Z,18.90
2022-12-27T16:52:41.460Z,18.23
2022-12-27T16:55:31.644Z,27.67
2022-12-27T16:58:21.466Z,19.00
2022-12-27T17:00:55.035Z,18.70
2022-12-27T17:03:23.358Z,19.30
2022-12-27T17:06:29.923Z,16.63
2022-12-27T17:08:42.241Z,15.55
2022-12-27T17:11:31.557Z,21.45
2022-12-27T17:14:12.109Z,29.00
2022-12-27T17:16:48.809Z,24.75
2022-12-27T17:19:29.572Z,23.20
2022-12-27T17:22:07.004Z,21.40
2022-12-27T17:24:36.235Z,23.02
2022-12-27T17:27:10.543Z,25.60
2022-12-27T17:30:00.056Z,25.05
2022-12-27T17:32:56.241Z,19.70
2022-12-27T17:36:01.563Z,19.40
2022-12-27T17:38:54.235Z,52.60
2022-12-27T17:41:41.518Z,27.98
2022-12-27T17:44:41.824Z,28.08
2022-12-27T17:47:34.250Z,23.70
2022-12-27T17:50:05.868Z,34.33
2022-12-27T17:52:34.097Z,34.90
2022-12-27T17:55:21.934Z,61.63
2022-12-27T17:57:55.939Z,25.95
2022-12-27T18:00:30.165Z,29.38
2022-12-27T18:03:06.720Z,24.73
2022-12-27T18:05:40.384Z,17.20
2022-12-27T18:08:26.873Z,23.55
2022-12-27T18:10:59.711Z,50.03
2022-12-27T18:13:32.753Z,46.10
2022-12-27T18:16:34.774Z,24.25
2022-12-27T18:19:03.336Z,31.25
2022-12-27T18:21:32.258Z,27.52
2022-12-27T18:24:00.509Z,23.55
2022-12-27T18:26:36.470Z,22.45
2022-12-27T18:29:05.459Z,21.73
2022-12-27T18:31:37.823Z,23.13
2022-12-27T18:34:23.119Z,22.50
2022-12-27T18:37:04.672Z,43.88
2022-12-27T18:39:41.921Z,44.92
2022-12-27T18:42:35.055Z,33.60
2022-12-27T18:45:06.596Z,54.20
2022-12-27T18:47:40.578Z,64.15
2022-12-27T18:50:21.207Z,77.85
2022-12-27T18:52:53.071Z,69.18
2022-12-27T18:55:25.087Z,67.72
2022-12-27T18:58:07.619Z,69.95
2022-12-27T19:00:53.333Z,72.93
2022-12-27T19:03:22.174Z,73.88
2022-12-27T19:06:07.162Z,62.35
2022-12-27T19:08:37.560Z,61.60
2022-12-27T19:11:07.494Z,79.80
2022-12-27T19:13:51.156Z,110.57
2022-12-27T19:16:24.608Z,88.78
2022-12-27T19:18:56.239Z,77.20
2022-12-27T19:21:36.997Z,65.60
2022-12-27T19:24:21.323Z,64.90
2022-12-27T19:26:50.478Z,67.88
2022-12-27T19:29:26.755Z,89.70
2022-12-27T19:31:56.368Z,79.78
2022-12-27T19:34:30.982Z,75.60
2022-12-27T19:37:00.151Z,66.13
2022-12-27T19:39:36.083Z,68.85
2022-12-27T19:42:07.826Z,80.47
2022-12-27T19:44:37.456Z,96.35
2022-12-27T19:47:05.901Z,95.65
2022-12-27T19:49:42.671Z,110.05
2022-12-27T19:52:20.885Z,107.97
2022-12-27T19:54:50.956Z,77.43
2022-12-27T19:57:19.422Z,97.72
2022-12-27T19:59:47.805Z,78.82
2022-12-27T20:02:16.192Z,83.20
2022-12-27T20:04:44.826Z,67.82
2022-12-27T20:07:25.787Z,69.53
2022-12-27T20:09:54.202Z,101.30
2022-12-27T20:12:22.812Z,105.60
2022-12-27T20:14:51.072Z,143.82
2022-12-27T20:17:19.468Z,211.05
2022-12-27T20:19:47.927Z,145.77
2022-12-27T20:22:16.157Z,105.10
2022-12-27T20:24:44.531Z,69.95
2022-12-27T20:27:12.821Z,68.57
2022-12-27T20:29:40.870Z,66.50
2022-12-27T20:32:12.364Z,67.63
2022-12-27T20:34:40.865Z,69.18
2022-12-27T20:37:09.345Z,68.53
2022-12-27T20:39:37.513Z,97.88
2022-12-27T20:42:06.175Z,202.23
2022-12-27T20:44:34.410Z,173.20
2022-12-27T20:47:02.894Z,147.50
2022-12-27T20:49:31.352Z,134.35
2022-12-27T20:51:59.576Z,98.20
2022-12-27T20:54:27.865Z,93.85
2022-12-27T20:56:58.308Z,113.65
2022-12-27T20:59:27.087Z,139.50
2022-12-27T21:01:57.363Z,107.07
2022-12-27T21:04:26.707Z,132.98
2022-12-27T21:06:55.114Z,112.97
2022-12-27T21:09:23.486Z,96.28
2022-12-27T21:11:54.751Z,94.13
2022-12-27T21:14:23.099Z,110.45
2022-12-27T21:16:51.484Z,155.85
2022-12-27T21:19:22.632Z,159.60
2022-12-27T21:21:51.123Z,130.27
2022-12-27T21:24:19.318Z,114.30
2022-12-27T21:26:50.792Z,102.25
2022-12-27T21:29:21.626Z,90.22
2022-12-27T21:31:49.987Z,83.10
2022-12-27T21:34:18.121Z,79.82
2022-12-27T21:36:46.484Z,77.18
2022-12-27T21:39:14.922Z,88.22
2022-12-27T21:41:43.135Z,85.85
2022-12-27T21:44:11.584Z,81.10
2022-12-27T21:46:41.965Z,86.53
2022-12-27T21:49:14.294Z,84.43
2022-12-27T21:51:43.996Z,91.88
2022-12-27T21:54:12.288Z,95.55
2022-12-27T21:56:41.163Z,94.50
2022-12-27T21:59:09.636Z,106.80
2022-12-27T22:01:51.384Z,127.00
2022-12-27T22:04:22.197Z,145.57
2022-12-27T22:06:51.243Z,185.00
2022-12-27T22:09:19.743Z,172.68
2022-12-27T22:11:48.531Z,159.18
2022-12-27T22:14:18.737Z,149.20
2022-12-27T22:16:50.348Z,134.02
2022-12-27T22:19:19.121Z,122.85
2022-12-27T22:21:48.399Z,113.38
2022-12-27T22:24:16.669Z,108.03
2022-12-27T22:26:45.160Z,96.65
2022-12-27T22:29:13.329Z,95.95
2022-12-27T22:31:41.695Z,105.55
2022-12-27T22:34:10.045Z,99.25
2022-12-27T22:36:38.256Z,109.38
2022-12-27T22:39:08.165Z,122.13
2022-12-27T22:41:37.905Z,119.50
2022-12-27T22:44:09.114Z,126.25
2022-12-27T22:47:24.330Z,153.77
2022-12-27T22:49:26.982Z,167.95
2022-12-27T22:51:55.201Z,184.73
2022-12-27T22:55:04.199Z,220.25
2022-12-27T22:57:12.038Z,247.57
2022-12-27T22:59:40.335Z,287.15
2022-12-27T23:02:08.633Z,344.83
2022-12-27T23:04:36.897Z,382.45
2022-12-27T23:07:10.056Z,401.17
2022-12-27T23:09:43.419Z,406.08
2022-12-27T23:12:12.813Z,417.98
2022-12-27T23:14:41.546Z,397.92
2022-12-27T23:17:09.820Z,393.75
2022-12-27T23:19:38.287Z,366.42
2022-12-27T23:22:06.945Z,344.90
2022-12-27T23:24:35.287Z,345.13
2022-12-27T23:27:03.464Z,324.05
2022-12-27T23:29:31.857Z,313.63
2022-12-27T23:32:00.052Z,322.77
2022-12-27T23:34:29.331Z,328.58
2022-12-27T23:37:01.183Z,313.00
2022-12-27T23:39:29.826Z,297.17
2022-12-27T23:41:57.983Z,297.88
2022-12-27T23:44:32.858Z,287.23
2022-12-27T23:47:06.714Z,296.13
2022-12-27T23:49:35.579Z,293.30
2022-12-27T23:52:04.222Z,303.77
2022-12-27T23:54:32.672Z,303.77
2022-12-27T23:57:20.495Z,324.92
2022-12-27T23:59:49.624Z,339.55
